createdAt,value
2023-01-22T00:01:43.762Z,16.40
2023-01-22T00:04:12.991Z,16.50
2023-01-22T00:06:41.951Z,16.60
2023-01-22T00:09:10.867Z,16.80
2023-01-22T00:11:39.719Z,16.90
2023-01-22T00:14:08.883Z,16.90
2023-01-22T00:16:37.818Z,17.00
2023-01-22T00:19:06.809Z,17.10
2023-01-22T00:21:35.869Z,17.10
2023-01-22T00:24:05.362Z,17.30
2023-01-22T00:26:34.334Z,17.30
2023-01-22T00:29:03.250Z,17.50
2023-01-22T00:31:32.358Z,17.60
2023-01-22T00:34:01.422Z,17.70
2023-01-22T00:36:30.447Z,17.80
2023-01-22T00:38:59.421Z,18.00
2023-01-22T00:41:28.392Z,18.00
2023-01-22T00:43:57.375Z,18.10
2023-01-22T00:46:26.402Z,18.20
2023-01-22T00:48:55.405Z,18.30
2023-01-22T00:51:24.442Z,18.40
2023-01-22T00:53:53.368Z,18.50
2023-01-22T00:56:22.575Z,18.60
2023-01-22T00:58:51.550Z,18.80
2023-01-22T01:01:21.363Z,18.90
2023-01-22T01:03:50.252Z,19.10
2023-01-22T01:06:21.666Z,19.30
2023-01-22T01:08:51.255Z,19.40
2023-01-22T01:11:30.814Z,19.60
2023-01-22T01:13:59.754Z,19.80
2023-01-22T01:16:31.105Z,19.90
2023-01-22T01:19:01.468Z,20.10
2023-01-22T01:21:31.396Z,20.30
2023-01-22T01:24:01.244Z,20.40
2023-01-22T01:26:30.299Z,20.60
2023-01-22T01:28:59.286Z,20.90
2023-01-22T01:31:28.529Z,21.10
2023-01-22T01:33:57.529Z,21.30
2023-01-22T01:36:47.239Z,21.50
2023-01-22T01:39:16.254Z,21.70
2023-01-22T01:41:45.477Z,22.00
2023-01-22T01:44:18.633Z,22.10
2023-01-22T01:46:47.696Z,22.40
2023-01-22T01:49:26.786Z,22.60
2023-01-22T01:52:02.683Z,22.80
2023-01-22T01:54:33.081Z,23.00
2023-01-22T01:57:34.294Z,23.20
2023-01-22T02:00:11.526Z,23.50
2023-01-22T02:02:41.680Z,23.60
2023-01-22T02:05:11.406Z,23.80
2023-01-22T02:07:40.290Z,24.10
2023-01-22T02:10:09.628Z,24.20
2023-01-22T02:12:38.565Z,24.40
2023-01-22T02:15:08.255Z,24.60
2023-01-22T02:17:37.344Z,24.80
2023-01-22T02:20:06.794Z,24.90
2023-01-22T02:22:39.138Z,25.10
2023-01-22T02:25:09.015Z,25.30
2023-01-22T02:27:38.010Z,25.50
2023-01-22T02:30:08.005Z,25.60
2023-01-22T02:32:36.997Z,25.70
2023-01-22T02:35:06.110Z,25.70
2023-01-22T02:37:35.032Z,25.80
2023-01-22T02:40:04.053Z,25.90
2023-01-22T02:42:33.013Z,26.00
2023-01-22T02:45:01.942Z,26.10
2023-01-22T02:47:30.980Z,26.10
2023-01-22T02:49:59.911Z,26.20
2023-01-22T02:52:28.859Z,26.20
2023-01-22T02:54:58.213Z,26.40
2023-01-22T02:57:27.336Z,26.60
2023-01-22T02:59:56.258Z,26.70
2023-01-22T03:02:25.611Z,26.90
2023-01-22T03:05:04.278Z,27.10
2023-01-22T03:07:43.452Z,27.20
2023-01-22T03:10:20.745Z,27.40
2023-01-22T03:13:11.138Z,27.30
2023-01-22T03:15:59.552Z,27.30
2023-01-22T03:18:46.595Z,27.40
2023-01-22T03:21:22.063Z,27.60
2023-01-22T03:23:59.794Z,27.70
2023-01-22T03:26:30.106Z,27.80
2023-01-22T03:28:59.012Z,27.90
2023-01-22T03:31:28.022Z,28.00
2023-01-22T03:33:56.985Z,28.10
2023-01-22T03:36:26.015Z,28.20
2023-01-22T03:38:54.946Z,28.30
2023-01-22T03:41:23.851Z,28.40
2023-01-22T03:43:52.799Z,28.40
2023-01-22T03:46:22.285Z,28.40
2023-01-22T03:48:55.205Z,28.40
2023-01-22T03:51:24.591Z,28.50
2023-01-22T03:53:53.680Z,28.70
2023-01-22T03:56:25.188Z,28.70
2023-01-22T03:58:54.604Z,28.60
2023-01-22T04:01:26.297Z,28.60
2023-01-22T04:03:55.997Z,28.50
2023-01-22T04:06:25.672Z,28.50
2023-01-22T04:08:56.283Z,28.50
2023-01-22T04:11:26.043Z,28.50
2023-01-22T04:13:57.345Z,28.70
2023-01-22T04:16:26.270Z,28.90
2023-01-22T04:18:55.271Z,29.10
2023-01-22T04:21:24.977Z,29.20
2023-01-22T04:23:53.884Z,29.20
2023-01-22T04:26:22.883Z,29.20
2023-01-22T04:28:51.812Z,29.20
2023-01-22T04:31:20.815Z,29.10
2023-01-22T04:33:49.822Z,29.10
2023-01-22T04:36:22.505Z,29.10
2023-01-22T04:38:51.520Z,29.20
2023-01-22T04:41:20.489Z,29.20
2023-01-22T04:43:49.481Z,29.10
2023-01-22T04:46:18.511Z,29.10
2023-01-22T04:48:47.557Z,29.20
2023-01-22T04:51:16.587Z,29.30
2023-01-22T04:53:45.554Z,29.40
2023-01-22T04:56:14.482Z,29.30
2023-01-22T04:58:43.422Z,29.40
2023-01-22T05:01:12.357Z,29.30
2023-01-22T05:03:41.636Z,29.30
2023-01-22T05:06:10.710Z,29.40
2023-01-22T05:08:39.668Z,29.40
2023-01-22T05:11:08.989Z,29.50
2023-01-22T05:13:38.014Z,29.60
2023-01-22T05:16:07.252Z,29.70
2023-01-22T05:18:36.154Z,29.80
2023-01-22T05:21:05.197Z,29.90
2023-01-22T05:23:34.090Z,29.90
2023-01-22T05:26:02.985Z,30.00
2023-01-22T05:28:31.968Z,30.00
2023-01-22T05:31:00.939Z,30.10
2023-01-22T05:33:33.892Z,30.20
2023-01-22T05:36:04.307Z,30.30
2023-01-22T05:38:33.548Z,30.30
2023-01-22T05:41:02.495Z,30.30
2023-01-22T05:43:31.437Z,30.40
2023-01-22T05:46:03.641Z,30.40
2023-01-22T05:48:34.446Z,30.50
2023-01-22T05:51:10.452Z,30.50
2023-01-22T05:53:45.490Z,30.50
2023-01-22T05:56:14.447Z,30.50
2023-01-22T05:58:43.387Z,30.50
2023-01-22T06:01:21.940Z,30.60
2023-01-22T06:03:51.011Z,30.70
2023-01-22T06:06:21.583Z,30.90
2023-01-22T06:08:53.489Z,30.90
2023-01-22T06:11:25.101Z,31.00
2023-01-22T06:14:14.056Z,31.00
2023-01-22T06:16:43.002Z,31.00
2023-01-22T06:19:12.397Z,31.00
2023-01-22T06:21:41.953Z,31.00
2023-01-22T06:24:10.999Z,31.10
2023-01-22T06:26:40.060Z,31.20
2023-01-22T06:29:09.131Z,31.30
2023-01-22T06:31:38.083Z,31.30
2023-01-22T06:34:06.987Z,31.40
2023-01-22T06:36:35.879Z,31.40
2023-01-22T06:39:05.018Z,31.40
2023-01-22T06:41:33.918Z,31.30
2023-01-22T06:44:02.808Z,31.40
2023-01-22T06:46:31.995Z,31.40
2023-01-22T06:49:02.666Z,31.40
2023-01-22T06:51:32.191Z,31.40
2023-01-22T06:54:01.625Z,31.40
2023-01-22T06:56:30.711Z,31.40
2023-01-22T06:58:59.640Z,31.40
2023-01-22T07:01:28.515Z,31.60
2023-01-22T07:03:57.806Z,31.70
2023-01-22T07:06:26.800Z,32.00
2023-01-22T07:08:57.374Z,32.20
2023-01-22T07:11:26.317Z,32.40
2023-01-22T07:13:55.263Z,32.50
2023-01-22T07:16:24.333Z,32.70
2023-01-22T07:18:53.352Z,32.70
2023-01-22T07:21:22.287Z,32.90
2023-01-22T07:23:51.233Z,33.00
2023-01-22T07:26:20.243Z,33.10
2023-01-22T07:28:49.155Z,33.10
2023-01-22T07:31:18.150Z,33.30
2023-01-22T07:33:47.110Z,33.30
2023-01-22T07:36:16.033Z,33.20
2023-01-22T07:38:44.945Z,33.00
2023-01-22T07:41:25.220Z,32.70
2023-01-22T07:43:55.132Z,32.70
2023-01-22T07:46:24.212Z,32.60
2023-01-22T07:48:53.148Z,32.70
2023-01-22T07:51:22.429Z,32.80
2023-01-22T07:53:51.371Z,32.90
2023-01-22T07:56:20.627Z,33.10
2023-01-22T07:58:49.504Z,33.30
2023-01-22T08:01:18.781Z,33.40
2023-01-22T08:03:47.745Z,33.50
2023-01-22T08:06:21.764Z,33.60
2023-01-22T08:08:51.188Z,33.60
2023-01-22T08:11:20.161Z,33.60
2023-01-22T08:13:49.222Z,33.60
2023-01-22T08:16:18.268Z,33.70
2023-01-22T08:18:47.168Z,33.70
2023-01-22T08:21:16.150Z,33.80
2023-01-22T08:23:48.188Z,33.80
2023-01-22T08:26:18.031Z,33.80
2023-01-22T08:28:46.949Z,33.80
2023-01-22T08:31:27.099Z,33.70
2023-01-22T08:33:59.119Z,33.50
2023-01-22T08:36:28.255Z,33.30
2023-01-22T08:38:57.461Z,33.20
2023-01-22T08:41:26.669Z,33.20
2023-01-22T08:43:55.766Z,33.20
2023-01-22T08:46:24.656Z,32.90
2023-01-22T08:48:53.657Z,32.70
2023-01-22T08:51:24.558Z,32.60
2023-01-22T08:53:53.647Z,32.50
2023-01-22T08:56:22.551Z,32.50
2023-01-22T08:58:52.653Z,32.60
2023-01-22T09:01:22.281Z,32.70
2023-01-22T09:03:51.245Z,32.80
2023-01-22T09:06:20.180Z,32.80
2023-01-22T09:08:49.079Z,32.70
2023-01-22T09:11:18.327Z,32.70
2023-01-22T09:13:47.639Z,32.60
2023-01-22T09:16:16.537Z,32.50
2023-01-22T09:18:45.441Z,32.40
2023-01-22T09:21:14.387Z,32.30
2023-01-22T09:23:43.301Z,32.30
2023-01-22T09:26:12.953Z,32.10
2023-01-22T09:28:41.905Z,32.10
2023-01-22T09:31:13.703Z,32.00
2023-01-22T09:33:42.641Z,31.90
2023-01-22T09:36:13.980Z,31.80
2023-01-22T09:38:43.247Z,31.70
2023-01-22T09:41:48.577Z,31.70
2023-01-22T09:44:24.763Z,31.60
2023-01-22T09:47:05.528Z,31.60
2023-01-22T09:50:01.767Z,31.50
2023-01-22T09:52:33.651Z,31.40
2023-01-22T09:55:02.557Z,31.30
2023-01-22T09:57:32.382Z,31.20
2023-01-22T10:00:01.565Z,31.10
2023-01-22T10:02:39.488Z,31.00
2023-01-22T10:05:20.753Z,31.00
2023-01-22T10:07:54.879Z,30.90
2023-01-22T10:10:27.067Z,30.80
2023-01-22T10:13:12.366Z,30.80
2023-01-22T10:15:41.589Z,30.70
2023-01-22T10:18:26.697Z,30.60
2023-01-22T10:20:57.112Z,30.50
2023-01-22T10:23:27.738Z,30.40
2023-01-22T10:26:20.162Z,30.30
2023-01-22T10:28:51.825Z,30.20
2023-01-22T10:31:34.506Z,30.10
2023-01-22T10:34:11.924Z,30.00
2023-01-22T10:36:40.871Z,30.00
2023-01-22T10:39:17.819Z,29.80
2023-01-22T10:41:48.601Z,29.80
2023-01-22T10:44:28.254Z,29.70
2023-01-22T10:47:07.974Z,29.60
2023-01-22T10:49:36.951Z,29.50
2023-01-22T10:52:38.040Z,29.30
2023-01-22T10:55:08.519Z,29.30
2023-01-22T10:57:39.051Z,29.10
2023-01-22T11:00:08.443Z,29.00
2023-01-22T11:02:38.197Z,28.90
2023-01-22T11:05:19.803Z,28.80
2023-01-22T11:08:12.751Z,28.60
2023-01-22T11:11:02.776Z,28.40
2023-01-22T11:14:03.902Z,28.30
2023-01-22T11:16:37.507Z,28.10
2023-01-22T11:19:14.833Z,27.90
2023-01-22T11:21:52.674Z,27.80
2023-01-22T11:24:38.250Z,27.60
2023-01-22T11:27:16.248Z,27.60
2023-01-22T11:30:24.181Z,27.40
2023-01-22T11:33:27.614Z,27.30
2023-01-22T11:36:18.289Z,27.20
2023-01-22T11:38:47.113Z,27.10
2023-01-22T11:41:48.665Z,26.90
2023-01-22T11:44:29.569Z,26.80
2023-01-22T11:47:19.703Z,26.70
2023-01-22T11:50:27.817Z,26.60
2023-01-22T11:53:18.053Z,26.50
2023-01-22T11:56:25.168Z,26.40
2023-01-22T11:59:07.034Z,26.20
2023-01-22T12:01:56.178Z,26.10
2023-01-22T12:04:54.205Z,26.00
2023-01-22T12:07:38.212Z,25.90
2023-01-22T12:10:31.402Z,25.80
2023-01-22T12:13:10.587Z,25.80
2023-01-22T12:16:06.453Z,25.70
2023-01-22T12:18:58.036Z,25.60
2023-01-22T12:21:41.411Z,25.50
2023-01-22T12:24:35.999Z,25.50
2023-01-22T12:27:07.247Z,25.40
2023-01-22T12:30:29.583Z,25.30
2023-01-22T12:33:04.319Z,25.30
2023-01-22T12:35:34.221Z,25.20
2023-01-22T12:38:16.157Z,25.10
2023-01-22T12:41:12.576Z,25.00
2023-01-22T12:43:44.327Z,24.90
2023-01-22T12:46:45.211Z,24.80
2023-01-22T12:49:18.571Z,24.70
2023-01-22T12:51:52.567Z,24.60
2023-01-22T12:54:22.945Z,24.50
2023-01-22T12:56:54.156Z,24.50
2023-01-22T12:59:42.880Z,24.40
2023-01-22T13:02:36.776Z,24.30
2023-01-22T13:05:23.672Z,24.20
2023-01-22T13:08:08.236Z,24.20
2023-01-22T13:10:38.287Z,24.20
2023-01-22T13:13:22.952Z,24.10
2023-01-22T13:16:01.009Z,24.00
2023-01-22T13:18:34.426Z,23.90
2023-01-22T13:21:12.532Z,23.80
2023-01-22T13:23:47.551Z,23.70
2023-01-22T13:26:18.547Z,23.70
2023-01-22T13:29:00.122Z,23.60
2023-01-22T13:31:29.238Z,23.50
2023-01-22T13:34:01.321Z,23.50
2023-01-22T13:36:30.711Z,23.40
2023-01-22T13:39:00.924Z,23.30
2023-01-22T13:41:39.556Z,23.30
2023-01-22T13:44:17.775Z,23.20
2023-01-22T13:46:47.011Z,23.10
2023-01-22T13:49:26.691Z,23.10
2023-01-22T13:51:58.340Z,23.00
2023-01-22T13:54:59.805Z,23.00
2023-01-22T13:57:28.813Z,23.00
2023-01-22T14:00:00.409Z,23.00
2023-01-22T14:02:32.147Z,22.90
2023-01-22T14:05:01.145Z,22.80
2023-01-22T14:07:34.655Z,22.70
2023-01-22T14:10:20.651Z,22.70
2023-01-22T14:13:11.638Z,22.60
2023-01-22T14:15:42.248Z,22.60
2023-01-22T14:18:14.615Z,22.50
2023-01-22T14:20:45.585Z,22.50
2023-01-22T14:23:15.201Z,22.40
2023-01-22T14:25:50.080Z,22.40
2023-01-22T14:28:19.738Z,22.40
2023-01-22T14:30:49.838Z,22.30
2023-01-22T14:33:25.011Z,22.30
2023-01-22T14:35:55.277Z,22.20
2023-01-22T14:38:25.602Z,22.10
2023-01-22T14:40:54.956Z,22.10
2023-01-22T14:43:24.440Z,22.00
2023-01-22T14:45:53.434Z,22.00
2023-01-22T14:48:22.964Z,21.90
2023-01-22T14:50:52.821Z,21.90
2023-01-22T14:53:21.850Z,21.80
2023-01-22T14:55:50.764Z,21.80
2023-01-22T14:58:19.774Z,21.70
2023-01-22T15:00:48.660Z,21.70
2023-01-22T15:03:17.650Z,21.60
2023-01-22T15:05:46.801Z,21.60
2023-01-22T15:08:15.725Z,21.60
2023-01-22T15:10:44.768Z,21.60
2023-01-22T15:13:13.761Z,21.50
2023-01-22T15:15:42.686Z,21.50
2023-01-22T15:18:11.714Z,21.50
2023-01-22T15:20:40.632Z,21.40
2023-01-22T15:23:09.642Z,21.40
2023-01-22T15:25:38.586Z,21.30
2023-01-22T15:28:07.621Z,21.30
2023-01-22T15:30:36.595Z,21.30
2023-01-22T15:33:05.579Z,21.20
2023-01-22T15:35:34.515Z,21.20
2023-01-22T15:38:06.389Z,21.20
2023-01-22T15:40:38.034Z,21.10
2023-01-22T15:43:07.391Z,21.10
2023-01-22T15:45:36.327Z,21.10
2023-01-22T15:48:05.363Z,21.10
2023-01-22T15:50:34.282Z,21.00
2023-01-22T15:53:03.206Z,21.00
2023-01-22T15:55:32.100Z,21.00
2023-01-22T15:58:01.361Z,21.00
2023-01-22T16:00:30.355Z,20.90
2023-01-22T16:02:59.278Z,20.90
2023-01-22T16:05:28.199Z,20.80
2023-01-22T16:07:57.096Z,20.70
2023-01-22T16:10:26.091Z,20.70
2023-01-22T16:12:55.064Z,20.70
2023-01-22T16:15:23.997Z,20.70
2023-01-22T16:17:52.947Z,20.60
2023-01-22T16:20:22.365Z,20.60
2023-01-22T16:22:51.527Z,20.50
2023-01-22T16:25:20.765Z,20.50
2023-01-22T16:27:49.660Z,20.40
2023-01-22T16:30:19.094Z,20.40
2023-01-22T16:32:48.251Z,20.30
2023-01-22T16:35:19.453Z,20.30
2023-01-22T16:37:48.385Z,20.20
2023-01-22T16:40:18.978Z,20.20
2023-01-22T16:43:00.949Z,20.10
2023-01-22T16:45:29.850Z,20.10
2023-01-22T16:47:58.919Z,20.10
2023-01-22T16:50:27.858Z,20.00
2023-01-22T16:52:56.830Z,20.00
2023-01-22T16:55:25.925Z,20.00
2023-01-22T16:57:54.850Z,19.90
2023-01-22T17:00:23.901Z,20.00
2023-01-22T17:02:52.883Z,19.90
2023-01-22T17:05:21.845Z,19.90
2023-01-22T17:07:50.750Z,19.90
2023-01-22T17:10:20.008Z,19.90
2023-01-22T17:12:49.215Z,19.90
2023-01-22T17:15:18.540Z,19.90
2023-01-22T17:17:47.650Z,19.80
2023-01-22T17:20:16.800Z,19.80
2023-01-22T17:22:45.851Z,19.80
2023-01-22T17:25:14.797Z,19.80
2023-01-22T17:27:43.707Z,19.70
2023-01-22T17:30:13.213Z,19.70
2023-01-22T17:32:42.126Z,19.70
2023-01-22T17:35:11.513Z,19.60
2023-01-22T17:37:40.511Z,19.60
2023-01-22T17:40:10.624Z,19.50
2023-01-22T17:42:39.569Z,19.50
2023-01-22T17:45:09.295Z,19.50
2023-01-22T17:47:38.247Z,19.40
2023-01-22T17:50:09.755Z,19.40
2023-01-22T17:52:38.699Z,19.40
2023-01-22T17:55:08.350Z,19.30
2023-01-22T17:57:37.411Z,19.30
2023-01-22T18:00:07.529Z,19.30
2023-01-22T18:02:36.481Z,19.30
2023-01-22T18:05:05.673Z,19.20
2023-01-22T18:07:36.381Z,19.20
2023-01-22T18:10:05.673Z,19.20
2023-01-22T18:12:34.624Z,19.20
2023-01-22T18:15:03.560Z,19.10
2023-01-22T18:17:32.519Z,19.10
2023-01-22T18:20:01.469Z,19.10
2023-01-22T18:22:31.439Z,19.00
2023-01-22T18:25:00.373Z,19.00
2023-01-22T18:27:29.776Z,19.00
2023-01-22T18:29:58.713Z,18.90
2023-01-22T18:32:27.635Z,18.90
2023-01-22T18:34:56.633Z,18.90
2023-01-22T18:37:25.605Z,18.80
2023-01-22T18:39:54.504Z,18.80
2023-01-22T18:42:23.478Z,18.70
2023-01-22T18:44:52.421Z,18.70
2023-01-22T18:47:21.722Z,18.60
2023-01-22T18:49:51.864Z,18.60
2023-01-22T18:52:20.911Z,18.60
2023-01-22T18:54:49.910Z,18.60
2023-01-22T18:57:18.877Z,18.50
2023-01-22T18:59:47.950Z,18.50
2023-01-22T19:02:18.679Z,18.50
2023-01-22T19:04:47.561Z,18.50
2023-01-22T19:07:16.436Z,18.50
2023-01-22T19:09:45.344Z,18.50
2023-01-22T19:12:16.420Z,18.40
2023-01-22T19:14:45.395Z,18.40
2023-01-22T19:17:14.312Z,18.30
2023-01-22T19:19:43.229Z,18.30
2023-01-22T19:22:12.111Z,18.20
2023-01-22T19:24:41.226Z,18.20
2023-01-22T19:27:10.628Z,18.10
2023-01-22T19:29:39.689Z,18.10
2023-01-22T19:32:12.446Z,18.10
2023-01-22T19:34:41.339Z,18.00
2023-01-22T19:37:10.388Z,18.00
2023-01-22T19:39:41.579Z,17.90
2023-01-22T19:42:10.761Z,17.90
2023-01-22T19:44:41.035Z,17.90
2023-01-22T19:47:10.447Z,17.80
2023-01-22T19:49:39.556Z,17.80
2023-01-22T19:52:09.551Z,17.80
2023-01-22T19:54:44.111Z,17.80
2023-01-22T19:57:13.145Z,17.70
2023-01-22T19:59:43.514Z,17.70
2023-01-22T20:02:15.770Z,17.70
2023-01-22T20:04:44.726Z,17.70
2023-01-22T20:07:14.053Z,17.70
2023-01-22T20:09:43.023Z,17.70
2023-01-22T20:12:12.368Z,17.70
2023-01-22T20:14:44.408Z,17.70
2023-01-22T20:17:17.754Z,17.60
2023-01-22T20:19:46.730Z,17.70
2023-01-22T20:22:15.674Z,17.70
2023-01-22T20:24:45.150Z,17.60
2023-01-22T20:27:14.230Z,17.60
2023-01-22T20:29:43.149Z,17.60
2023-01-22T20:32:12.133Z,17.60
2023-01-22T20:34:43.092Z,17.60
2023-01-22T20:37:12.105Z,17.60
2023-01-22T20:39:41.112Z,17.60
2023-01-22T20:42:10.350Z,17.60
2023-01-22T20:44:39.705Z,17.60
2023-01-22T20:47:08.645Z,17.60
2023-01-22T20:49:38.232Z,17.60
2023-01-22T20:52:07.562Z,17.50
2023-01-22T20:54:42.805Z,17.50
2023-01-22T20:57:19.861Z,17.50
2023-01-22T20:59:49.603Z,17.50
2023-01-22T21:02:18.682Z,17.40
2023-01-22T21:04:47.697Z,17.40
2023-01-22T21:07:16.691Z,17.40
2023-01-22T21:09:45.832Z,17.40
2023-01-22T21:12:15.085Z,17.40
2023-01-22T21:14:44.096Z,17.40
2023-01-22T21:17:13.494Z,17.40
2023-01-22T21:19:44.292Z,17.40
2023-01-22T21:22:13.269Z,17.40
2023-01-22T21:24:42.579Z,17.40
2023-01-22T21:27:11.608Z,17.40
2023-01-22T21:29:41.555Z,17.40
2023-01-22T21:32:10.523Z,17.30
2023-01-22T21:34:39.495Z,17.40
2023-01-22T21:37:08.422Z,17.40
2023-01-22T21:39:39.640Z,17.40
2023-01-22T21:42:26.571Z,17.40
2023-01-22T21:45:13.525Z,17.40
2023-01-22T21:47:42.463Z,17.40
2023-01-22T21:50:12.062Z,17.50
2023-01-22T21:52:44.051Z,17.50
2023-01-22T21:55:14.207Z,17.50
2023-01-22T21:57:44.005Z,17.50
2023-01-22T22:00:13.523Z,17.50
2023-01-22T22:02:42.406Z,17.50
2023-01-22T22:05:12.525Z,17.50
2023-01-22T22:07:41.519Z,17.50
2023-01-22T22:10:16.168Z,17.50
2023-01-22T22:12:45.214Z,17.50
2023-01-22T22:15:14.396Z,17.50
2023-01-22T22:17:43.518Z,17.50
2023-01-22T22:20:13.500Z,17.40
2023-01-22T22:22:42.494Z,17.40
2023-01-22T22:25:11.728Z,17.50
2023-01-22T22:27:40.584Z,17.50
2023-01-22T22:30:10.265Z,17.50
2023-01-22T22:32:39.126Z,17.50
2023-01-22T22:35:08.395Z,17.50
2023-01-22T22:37:38.041Z,17.50
2023-01-22T22:40:07.567Z,17.50
2023-01-22T22:42:36.505Z,17.50
2023-01-22T22:45:05.854Z,17.50
2023-01-22T22:47:37.781Z,17.50
2023-01-22T22:50:07.964Z,17.40
2023-01-22T22:52:37.408Z,17.40
2023-01-22T22:55:07.095Z,17.40
2023-01-22T22:57:36.023Z,17.30
2023-01-22T23:00:10.401Z,17.30
2023-01-22T23:02:39.413Z,17.30
2023-01-22T23:05:08.961Z,17.30
2023-01-22T23:07:37.897Z,17.20
2023-01-22T23:10:07.230Z,17.20
2023-01-22T23:12:36.168Z,17.10
2023-01-22T23:15:05.773Z,17.10
2023-01-22T23:17:34.642Z,17.00
2023-01-22T23:20:03.554Z,17.00
2023-01-22T23:22:32.455Z,16.90
2023-01-22T23:25:01.413Z,16.90
2023-01-22T23:27:31.372Z,16.90
2023-01-22T23:30:00.319Z,16.80
2023-01-22T23:32:31.664Z,16.80
2023-01-22T23:35:00.618Z,16.80
2023-01-22T23:37:29.610Z,16.80
2023-01-22T23:39:58.522Z,16.70
2023-01-22T23:42:27.403Z,16.70
2023-01-22T23:44:56.355Z,16.70
2023-01-22T23:47:28.144Z,16.70
2023-01-22T23:49:57.103Z,16.70
2023-01-22T23:52:26.113Z,16.70
2023-01-22T23:54:55.353Z,16.70
2023-01-22T23:57:24.344Z,16.70
2023-01-22T23:59:53.300Z,16.70
